Time;durP1;ratioP1;P1;durP2;ratioP2;P2;SDS_P1;SDS_P2;PMS_P1;PMS_P2;Temp;Humidity;BMP_temperature;BMP_pressure;BME280_temperature;BME280_humidity;BME280_pressure;Samples;Min_cycle;Max_cycle;Signal;HPM_P1;HPM_P2
2021/06/19 00:00:18;;;;;;;17.30;11.83;;;;;;;17.39;66.55;97342.77;1750778;81;26281;-90
2021/06/19 00:02:47;;;;;;;15.05;11.43;;;;;;;17.35;66.61;97345.74;1750332;81;25792;-91
2021/06/19 00:05:14;;;;;;;14.00;11.05;;;;;;;17.29;66.69;97342.66;1733560;81;25775;-85
2021/06/19 00:07:42;;;;;;;17.82;11.55;;;;;;;17.27;66.74;97344.27;1746696;81;26414;-89
2021/06/19 00:10:10;;;;;;;11.88;9.93;;;;;;;17.24;66.83;97339.35;1727983;81;27411;-91
2021/06/19 00:12:37;;;;;;;13.80;10.63;;;;;;;17.19;66.83;97334.36;1735262;81;26349;-87
2021/06/19 00:15:11;;;;;;;12.60;10.10;;;;;;;17.19;66.91;97334.36;1744556;81;26286;-86
2021/06/19 00:17:38;;;;;;;14.00;9.70;;;;;;;17.16;66.99;97330.77;1744563;81;25697;-91
2021/06/19 00:20:12;;;;;;;11.45;10.18;;;;;;;17.11;67.09;97334.82;1753515;81;26286;-86
2021/06/19 00:22:39;;;;;;;14.73;11.03;;;;;;;17.03;67.04;97339.34;1749842;81;27366;-90
2021/06/19 00:25:08;;;;;;;19.20;12.20;;;;;;;17.03;67.38;97346.16;1737759;81;25743;-89
2021/06/19 00:27:35;;;;;;;14.15;11.43;;;;;;;17.00;67.37;97338.50;1744630;81;25783;-82
2021/06/19 00:30:07;;;;;;;14.53;11.00;;;;;;;16.96;67.39;97334.63;1752683;81;26164;-86
2021/06/19 00:32:33;;;;;;;12.18;10.78;;;;;;;16.92;67.42;97343.30;1748441;81;25737;-88
2021/06/19 00:35:01;;;;;;;11.43;9.80;;;;;;;16.82;67.44;97341.81;1738962;81;27401;-82
2021/06/19 00:37:28;;;;;;;10.93;9.40;;;;;;;16.80;67.51;97342.59;1742627;81;25796;-88
2021/06/19 00:39:54;;;;;;;13.55;10.20;;;;;;;16.78;67.62;97343.41;1734645;81;25662;-89
2021/06/19 00:42:22;;;;;;;11.10;9.85;;;;;;;16.78;67.65;97344.78;1747962;81;26124;-87
2021/06/19 00:44:49;;;;;;;10.70;9.55;;;;;;;16.77;67.61;97351.30;1725863;81;25756;-87
2021/06/19 00:47:15;;;;;;;11.30;9.48;;;;;;;16.72;67.55;97351.76;1739432;81;27376;-84
2021/06/19 00:49:42;;;;;;;13.95;10.10;;;;;;;16.67;67.66;97353.86;1743937;81;25804;-87
2021/06/19 00:52:09;;;;;;;10.25;9.20;;;;;;;16.61;67.73;97349.94;1737304;81;25703;-87
2021/06/19 00:54:36;;;;;;;12.65;10.38;;;;;;;16.58;67.83;97352.62;1743885;81;26583;-88
2021/06/19 00:57:04;;;;;;;10.80;9.43;;;;;;;16.50;67.79;97337.53;1744581;81;25662;-85
2021/06/19 00:59:31;;;;;;;10.85;9.80;;;;;;;16.48;67.77;97344.30;1728381;81;27431;-87
2021/06/19 01:01:57;;;;;;;11.63;9.75;;;;;;;16.46;67.92;97341.00;1731991;81;26522;-83
2021/06/19 01:04:24;;;;;;;11.25;10.20;;;;;;;16.44;67.95;97344.50;1744609;81;25743;-88
2021/06/19 01:06:50;;;;;;;14.28;10.10;;;;;;;16.39;68.06;97333.55;1747884;80;26869;-87
2021/06/19 01:09:17;;;;;;;14.20;10.48;;;;;;;16.34;68.20;97332.93;1742640;82;25784;-86
2021/06/19 01:11:45;;;;;;;11.33;9.88;;;;;;;16.30;68.20;97339.14;1742525;82;28030;-87
2021/06/19 01:14:11;;;;;;;10.70;9.58;;;;;;;16.26;68.37;97333.36;1742398;82;26492;-87
2021/06/19 01:16:38;;;;;;;11.05;9.90;;;;;;;16.18;68.29;97329.14;1742560;82;25679;-87
2021/06/19 01:19:05;;;;;;;10.53;9.45;;;;;;;16.17;68.38;97335.69;1742314;82;25722;-87
2021/06/19 01:21:32;;;;;;;14.28;10.00;;;;;;;16.10;68.40;97332.29;1742298;82;25297;-86
2021/06/19 01:24:00;;;;;;;11.68;10.25;;;;;;;16.05;68.52;97337.67;1761093;81;27421;-89
2021/06/19 01:26:29;;;;;;;13.28;9.58;;;;;;;15.89;68.55;97341.20;1759079;81;25768;-87
2021/06/19 01:28:58;;;;;;;15.45;10.72;;;;;;;15.76;68.78;97336.08;1729350;81;25767;-86
2021/06/19 01:31:26;;;;;;;11.05;9.68;;;;;;;15.80;69.08;97342.69;1729259;81;25720;-87
2021/06/19 01:33:54;;;;;;;11.38;10.28;;;;;;;15.84;69.18;97338.38;1760864;80;25709;-87
2021/06/19 01:36:22;;;;;;;10.95;9.88;;;;;;;15.84;69.16;97333.77;1761124;80;27360;-85
2021/06/19 01:38:52;;;;;;;12.45;10.58;;;;;;;15.80;69.13;97333.16;1760690;80;26330;-86
2021/06/19 01:41:28;;;;;;;11.40;10.30;;;;;;;15.79;69.23;97327.42;1729306;81;25684;-87
2021/06/19 01:44:08;;;;;;;10.50;9.20;;;;;;;15.79;69.21;97330.15;1760754;81;26240;-86
2021/06/19 01:46:41;;;;;;;13.05;10.32;;;;;;;15.77;69.18;97329.56;1729126;81;25750;-84
2021/06/19 01:49:07;;;;;;;;;;;;;;;15.76;69.24;97333.35;1732044;82;27436;-86
2021/06/19 01:51:34;;;;;;;11.18;10.10;;;;;;;15.77;69.71;97329.56;1760957;80;25312;-86
2021/06/19 01:54:01;;;;;;;10.23;9.33;;;;;;;15.74;69.39;97331.41;1761201;81;25718;-85
2021/06/19 01:56:28;;;;;;;11.45;9.38;;;;;;;15.63;69.29;97330.94;1760686;80;25967;-86
2021/06/19 01:58:54;;;;;;;11.08;9.88;;;;;;;15.48;69.25;97339.08;1729131;82;25788;-86
2021/06/19 02:01:21;;;;;;;10.43;9.45;;;;;;;15.47;69.55;97340.69;1760884;80;28288;-83
2021/06/19 02:03:49;;;;;;;12.40;9.53;;;;;;;15.46;69.59;97341.75;1729203;82;26471;-85
2021/06/19 02:06:16;;;;;;;10.65;9.48;;;;;;;15.45;69.61;97346.39;1762184;80;25804;-85
2021/06/19 02:09:08;;;;;;;10.95;8.98;;;;;;;15.44;69.65;97342.02;1744520;79;25705;-85
2021/06/19 02:11:36;;;;;;;11.55;9.78;;;;;;;15.45;69.70;97343.67;1754622;80;25745;-87
2021/06/19 02:14:04;;;;;;;10.68;9.58;;;;;;;15.41;69.61;97345.22;1767063;79;27361;-87
2021/06/19 02:16:32;;;;;;;13.65;11.10;;;;;;;15.27;69.60;97343.86;1754114;80;25889;-88
2021/06/19 02:18:58;;;;;;;11.85;10.65;;;;;;;15.19;69.82;97348.33;1769769;80;25620;-86
2021/06/19 02:21:25;;;;;;;11.88;10.68;;;;;;;15.20;70.02;97350.52;1787362;80;25958;-86
2021/06/19 02:23:51;;;;;;;12.40;11.20;;;;;;;15.20;70.05;97352.70;1787506;80;25712;-87
2021/06/19 02:26:18;;;;;;;14.90;11.03;;;;;;;15.20;70.05;97356.78;1787283;80;28435;-86
2021/06/19 02:28:44;;;;;;;13.30;11.60;;;;;;;15.14;69.99;97348.22;1787317;80;25963;-85
2021/06/19 02:31:11;;;;;;;14.30;11.05;;;;;;;15.10;70.17;97351.11;1787565;80;25792;-84
2021/06/19 02:33:38;;;;;;;11.85;10.63;;;;;;;15.09;70.21;97353.57;1787392;80;25792;-86
2021/06/19 02:36:05;;;;;;;17.07;11.10;;;;;;;15.08;70.28;97355.46;1787142;80;26444;-85
2021/06/19 02:38:32;;;;;;;11.48;9.95;;;;;;;15.08;70.24;97355.46;1787096;80;27533;-84
2021/06/19 02:40:58;;;;;;;13.10;10.15;;;;;;;15.07;70.21;97343.47;1787287;80;25708;-85
2021/06/19 02:43:25;;;;;;;12.88;9.98;;;;;;;15.06;70.17;97340.45;1787392;79;25823;-83
2021/06/19 02:45:52;;;;;;;10.10;9.03;;;;;;;15.04;70.13;97338.50;1787351;79;26195;-86
2021/06/19 02:48:19;;;;;;;10.70;9.60;;;;;;;15.01;70.10;97347.13;1787131;80;25775;-86
2021/06/19 02:50:46;;;;;;;10.58;9.43;;;;;;;14.98;70.22;97351.68;1787323;80;28259;-88
2021/06/19 02:53:13;;;;;;;11.80;9.70;;;;;;;14.93;70.26;97348.34;1787249;80;25853;-87
2021/06/19 02:55:42;;;;;;;10.80;9.80;;;;;;;14.89;70.25;97345.80;1787442;80;25777;-85
2021/06/19 02:58:11;;;;;;;9.25;8.23;;;;;;;14.89;70.37;97347.16;1787374;80;25694;-86
2021/06/19 03:00:38;;;;;;;12.73;9.00;;;;;;;14.90;70.44;97347.98;1787311;80;25834;-86
2021/06/19 03:03:07;;;;;;;12.05;9.10;;;;;;;14.92;70.45;97357.56;1787267;80;28186;-87
2021/06/19 03:05:36;;;;;;;11.40;10.25;;;;;;;14.91;70.47;97355.08;1787270;79;25810;-88
2021/06/19 03:08:03;;;;;;;12.13;9.48;;;;;;;14.91;70.53;97357.80;1771446;79;25684;-89
2021/06/19 03:10:34;;;;;;;11.28;9.28;;;;;;;14.90;70.60;97362.94;1758756;80;25718;-90
2021/06/19 03:13:01;;;;;;;10.68;9.75;;;;;;;14.91;70.58;97359.16;1758844;80;25709;-88
2021/06/19 03:15:28;;;;;;;11.38;9.70;;;;;;;14.91;70.61;97364.59;1750096;80;27515;-87
2021/06/19 03:17:55;;;;;;;10.90;9.60;;;;;;;14.88;70.61;97358.27;1732495;81;25767;-87
2021/06/19 03:20:22;;;;;;;12.18;9.78;;;;;;;14.85;70.72;97355.52;1725200;81;25749;-93
2021/06/19 03:22:53;;;;;;;12.35;10.85;;;;;;;14.83;70.88;97362.25;1724410;81;25747;-92
2021/06/19 03:25:24;;;;;;;11.50;10.32;;;;;;;14.72;70.95;97360.69;1724733;81;25702;-89
2021/06/19 03:27:51;;;;;;;11.38;10.32;;;;;;;14.68;71.19;97357.31;1730349;81;27379;-93
2021/06/19 03:30:20;;;;;;;14.45;10.70;;;;;;;14.69;71.39;97354.89;1725349;81;25777;-90
2021/06/19 03:32:48;;;;;;;13.10;11.03;;;;;;;14.70;71.58;97357.38;1725537;81;26337;-89
2021/06/19 03:35:15;;;;;;;12.55;11.08;;;;;;;14.73;71.63;97360.16;1728492;81;25767;-87
2021/06/19 03:37:44;;;;;;;15.00;12.18;;;;;;;14.77;71.68;97366.73;1774347;79;25716;-88
2021/06/19 03:40:11;;;;;;;12.07;10.82;;;;;;;14.83;71.59;97368.52;1774130;80;28184;-91
2021/06/19 03:42:39;;;;;;;12.43;10.63;;;;;;;14.85;71.51;97371.83;1744668;81;26421;-89
2021/06/19 03:45:08;;;;;;;11.60;10.43;;;;;;;14.84;71.54;97370.70;1725277;81;26417;-91
2021/06/19 03:47:36;;;;;;;15.10;10.18;;;;;;;14.85;71.62;97369.64;1725175;81;26097;-91
2021/06/19 03:50:05;;;;;;;12.50;10.40;;;;;;;14.87;71.67;97372.92;1721301;81;25726;-91
2021/06/19 03:52:31;;;;;;;13.28;11.97;;;;;;;14.89;71.75;97374.34;1727464;81;28232;-92
2021/06/19 03:54:58;;;;;;;14.70;12.58;;;;;;;14.95;71.84;97376.65;1725217;81;25753;-91
2021/06/19 03:57:29;;;;;;;13.22;11.93;;;;;;;14.99;71.94;97371.00;1725236;81;26543;-91
2021/06/19 03:59:56;;;;;;;13.38;11.97;;;;;;;15.03;72.08;97375.73;1724512;81;26370;-90
2021/06/19 04:02:23;;;;;;;15.08;12.25;;;;;;;15.08;72.08;97370.41;1725245;81;25700;-89
2021/06/19 04:04:50;;;;;;;12.13;10.80;;;;;;;15.13;72.12;97373.75;1725214;81;28020;-87
2021/06/19 04:07:18;;;;;;;12.00;10.80;;;;;;;15.16;72.07;97375.99;1725014;81;25799;-86
2021/06/19 04:09:48;;;;;;;15.80;11.68;;;;;;;15.21;72.04;97377.47;1739049;81;25776;-88
2021/06/19 04:12:16;;;;;;;17.60;11.73;;;;;;;15.26;72.09;97381.63;1775526;80;26389;-88
2021/06/19 04:14:43;;;;;;;13.03;11.05;;;;;;;15.32;72.07;97380.68;1787422;80;26580;-90
2021/06/19 04:17:10;;;;;;;12.63;11.15;;;;;;;15.34;72.07;97375.80;1757935;80;27403;-89
2021/06/19 04:19:40;;;;;;;14.60;12.60;;;;;;;15.38;72.10;97366.09;1743554;80;25700;-89
2021/06/19 04:22:07;;;;;;;12.75;11.28;;;;;;;15.43;72.15;97368.10;1787266;80;26296;-90
2021/06/19 04:24:35;;;;;;;13.30;11.90;;;;;;;15.47;72.19;97367.35;1786934;80;25772;-89
2021/06/19 04:27:04;;;;;;;16.17;11.60;;;;;;;15.50;72.23;97363.33;1752304;81;25690;-86
2021/06/19 04:29:32;;;;;;;13.83;12.47;;;;;;;15.55;72.23;97364.00;1760079;80;27553;-89
2021/06/19 04:32:00;;;;;;;16.35;12.73;;;;;;;15.60;72.31;97359.45;1749837;81;25757;-89
2021/06/19 04:34:27;;;;;;;14.53;13.03;;;;;;;15.66;72.32;97357.14;1739826;81;25685;-90
2021/06/19 04:36:54;;;;;;;18.85;13.18;;;;;;;15.70;72.41;97352.01;1740741;81;25786;-89
2021/06/19 04:39:21;;;;;;;13.30;11.95;;;;;;;15.75;72.45;97342.59;1723515;81;25287;-90
2021/06/19 04:42:04;;;;;;;14.20;12.75;;;;;;;15.80;72.52;97341.33;1757105;81;27407;-85
2021/06/19 04:46:53;;;;;;;17.65;12.70;;;;;;;15.95;72.56;97338.02;1757200;81;25838;-86
2021/06/19 04:49:19;;;;;;;15.63;12.68;;;;;;;16.01;72.65;97341.95;1757147;81;25816;-87
2021/06/19 04:51:46;;;;;;;14.83;13.32;;;;;;;16.09;72.59;97344.25;1738628;81;25766;-91
2021/06/19 04:54:14;;;;;;;17.55;12.65;;;;;;;16.16;72.77;97342.73;1743345;81;28014;-92
2021/06/19 04:56:42;;;;;;;15.03;12.43;;;;;;;16.25;72.87;97337.16;1744806;81;25781;-90
2021/06/19 04:59:08;;;;;;;12.68;11.38;;;;;;;16.35;72.73;97340.56;1744919;81;25738;-88
2021/06/19 05:01:35;;;;;;;12.37;11.12;;;;;;;16.43;72.60;97338.77;1736864;81;25882;-87
2021/06/19 05:04:02;;;;;;;12.70;11.33;;;;;;;16.51;72.55;97335.64;1727851;81;25781;-88
2021/06/19 05:06:29;;;;;;;14.80;10.60;;;;;;;16.59;72.53;97333.84;1744603;81;27887;-89
2021/06/19 05:08:56;;;;;;;13.22;11.22;;;;;;;16.66;72.50;97334.53;1740542;81;25814;-88
2021/06/19 05:11:23;;;;;;;16.48;10.98;;;;;;;16.73;72.39;97337.88;1737974;81;25770;-88
2021/06/19 05:13:49;;;;;;;13.22;11.53;;;;;;;16.82;72.27;97329.55;1738269;81;25937;-87
2021/06/19 05:16:16;;;;;;;13.32;11.05;;;;;;;16.91;72.21;97338.09;1747757;80;25710;-87
2021/06/19 05:18:43;;;;;;;12.80;11.18;;;;;;;17.00;72.11;97332.52;1731800;81;26979;-87
2021/06/19 05:21:09;;;;;;;12.20;11.00;;;;;;;17.09;71.99;97334.24;1739199;81;25809;-87
2021/06/19 05:23:36;;;;;;;12.90;11.68;;;;;;;17.16;72.14;97329.41;1742816;81;25244;-86
2021/06/19 05:26:02;;;;;;;13.90;12.47;;;;;;;17.24;72.26;97331.17;1761317;80;26012;-87
2021/06/19 05:28:29;;;;;;;14.38;11.95;;;;;;;17.32;72.29;97324.42;1761178;81;25848;-86
2021/06/19 05:30:56;;;;;;;13.88;11.55;;;;;;;17.40;72.32;97317.13;1761139;80;27591;-84
2021/06/19 05:33:23;;;;;;;13.83;12.43;;;;;;;17.49;72.31;97314.78;1760921;80;25847;-85
2021/06/19 05:35:49;;;;;;;15.05;11.78;;;;;;;17.59;72.27;97308.06;1761346;80;25710;-86
2021/06/19 05:38:18;;;;;;;13.62;11.70;;;;;;;17.68;72.12;97305.70;1761244;81;26085;-90
2021/06/19 05:40:44;;;;;;;16.05;11.78;;;;;;;17.77;72.05;97308.23;1761075;80;25267;-87
2021/06/19 05:43:11;;;;;;;13.08;11.53;;;;;;;17.89;71.95;97306.16;1761651;81;27387;-87
2021/06/19 05:45:38;;;;;;;13.32;11.93;;;;;;;18.00;71.87;97313.35;1761433;80;25765;-89
2021/06/19 05:48:05;;;;;;;14.25;11.12;;;;;;;18.10;71.99;97313.46;1761548;81;25677;-87
2021/06/19 05:50:31;;;;;;;19.00;12.47;;;;;;;18.22;72.02;97314.64;1761474;81;26174;-90
2021/06/19 05:52:58;;;;;;;13.43;12.03;;;;;;;18.34;71.94;97320.20;1761620;81;25748;-87
2021/06/19 05:55:25;;;;;;;14.00;11.68;;;;;;;18.45;71.64;97316.16;1761512;81;27374;-86
2021/06/19 05:57:51;;;;;;;13.25;10.93;;;;;;;18.57;71.56;97320.88;1761380;81;25409;-86
2021/06/19 06:00:18;;;;;;;12.63;10.75;;;;;;;18.67;71.30;97314.12;1761508;81;25671;-88
2021/06/19 06:02:46;;;;;;;11.90;10.40;;;;;;;18.77;71.09;97311.45;1761210;81;43417;-86
2021/06/19 06:05:13;;;;;;;11.22;10.08;;;;;;;18.88;70.82;97310.41;1761493;81;25748;-87
2021/06/19 06:07:40;;;;;;;14.03;10.70;;;;;;;18.99;70.65;97312.63;1761314;80;28019;-88
2021/06/19 06:10:08;;;;;;;14.18;10.63;;;;;;;19.10;70.41;97314.31;1768208;79;26411;-90
2021/06/19 06:12:35;;;;;;;12.82;9.73;;;;;;;19.20;70.30;97317.09;1769224;81;25780;-86
2021/06/19 06:15:01;;;;;;;11.88;9.65;;;;;;;19.31;70.15;97322.07;1769216;81;25823;-84
2021/06/19 06:17:28;;;;;;;12.73;9.20;;;;;;;19.42;69.86;97321.01;1769325;81;25770;-88
2021/06/19 06:19:54;;;;;;;13.32;9.08;;;;;;;19.53;69.36;97313.67;1769259;81;27330;-89
2021/06/19 06:22:21;;;;;;;13.62;10.03;;;;;;;19.64;69.18;97312.59;1769205;81;25698;-90
2021/06/19 06:24:47;;;;;;;11.60;10.40;;;;;;;19.74;69.20;97309.31;1769355;81;25729;-90
2021/06/19 06:27:14;;;;;;;14.38;9.88;;;;;;;19.85;69.37;97299.73;1769320;81;26320;-92
2021/06/19 06:29:41;;;;;;;10.60;9.60;;;;;;;19.95;68.99;97303.84;1769193;81;25682;-91
2021/06/19 06:32:08;;;;;;;11.03;9.78;;;;;;;20.05;68.74;97301.09;1769229;81;28316;-90
2021/06/19 06:34:34;;;;;;;12.33;8.78;;;;;;;20.15;68.55;97297.02;1757417;81;25745;-90
2021/06/19 06:37:01;;;;;;;9.80;8.73;;;;;;;20.24;68.13;97293.98;1780283;80;25746;-89
2021/06/19 06:39:27;;;;;;;10.35;8.45;;;;;;;20.36;68.21;97295.91;1762775;80;25732;-86
2021/06/19 06:41:55;;;;;;;11.18;8.55;;;;;;;20.50;67.86;97297.54;1776938;80;25480;-90
2021/06/19 06:44:21;;;;;;;14.53;9.45;;;;;;;20.60;67.70;97291.20;1779691;80;27374;-89
2021/06/19 06:46:48;;;;;;;9.55;8.65;;;;;;;20.72;67.89;97291.72;1753690;81;26123;-90
2021/06/19 06:49:15;;;;;;;9.55;8.48;;;;;;;20.80;67.91;97294.70;1778910;80;25752;-89
2021/06/19 06:51:42;;;;;;;13.72;8.73;;;;;;;20.91;67.60;97300.97;1779710;80;26109;-89
2021/06/19 06:54:08;;;;;;;9.08;8.18;;;;;;;21.04;67.58;97301.75;1766391;80;25685;-91
2021/06/19 06:56:35;;;;;;;9.95;8.70;;;;;;;21.18;67.06;97299.22;1779848;80;27445;-87
2021/06/19 06:59:01;;;;;;;12.63;7.80;;;;;;;21.33;66.87;97295.06;1779699;80;25735;-87
2021/06/19 07:01:28;;;;;;;10.00;7.90;;;;;;;21.50;66.48;97293.30;1779839;80;25763;-93
2021/06/19 07:03:58;;;;;;;10.03;7.53;;;;;;;21.61;66.12;97294.91;1779429;80;26376;-92
2021/06/19 07:06:27;;;;;;;9.10;7.42;;;;;;;21.70;65.50;97289.07;1779977;80;26404;-93
2021/06/19 07:08:53;;;;;;;8.08;7.22;;;;;;;21.79;65.14;97290.64;1781883;80;28388;-92
2021/06/19 07:11:21;;;;;;;8.15;6.35;;;;;;;21.89;64.86;97291.39;1767455;80;26128;-88
2021/06/19 07:13:48;;;;;;;8.28;6.87;;;;;;;22.01;64.60;97287.48;1761433;81;25709;-94
2021/06/19 07:16:15;;;;;;;6.97;5.90;;;;;;;22.14;64.41;97286.82;1753537;81;25428;-89
2021/06/19 07:18:42;;;;;;;10.08;6.60;;;;;;;22.25;63.68;97286.99;1767874;80;25831;-90
2021/06/19 07:21:08;;;;;;;7.95;7.05;;;;;;;22.40;63.63;97286.86;1788630;79;27373;-92
2021/06/19 07:23:35;;;;;;;7.85;6.97;;;;;;;22.54;63.76;97284.25;1789652;80;25863;-93
2021/06/19 07:26:01;;;;;;;8.55;6.35;;;;;;;22.66;63.33;97281.09;1788961;80;25743;-90
2021/06/19 07:28:29;;;;;;;8.13;6.60;;;;;;;22.77;62.54;97286.78;1789440;79;26218;-94
2021/06/19 07:30:56;;;;;;;8.13;6.08;;;;;;;22.85;61.81;97284.75;1789136;80;26271;-94
2021/06/19 07:33:22;;;;;;;9.68;6.67;;;;;;;22.95;61.77;97286.00;1789051;79;28113;-94
2021/06/19 07:35:49;;;;;;;7.78;6.35;;;;;;;23.04;60.89;97262.23;1788473;80;25715;-92
2021/06/19 07:38:15;;;;;;;9.80;7.25;;;;;;;23.04;60.89;97262.23;1789572;79;25958;-88
2021/06/19 07:40:42;;;;;;;7.00;6.40;;;;;;;23.39;60.92;97277.47;1787255;80;26673;-93
2021/06/19 07:43:08;;;;;;;7.97;6.72;;;;;;;23.39;60.92;97277.47;1755199;81;25188;-90
2021/06/19 07:45:35;;;;;;;7.92;7.12;;;;;;;23.52;60.72;97273.19;1783033;80;27410;-94
2021/06/19 07:48:02;;;;;;;7.62;6.75;;;;;;;23.62;60.77;97271.09;1787585;80;25807;-86
2021/06/19 07:50:28;;;;;;;12.28;7.03;;;;;;;23.78;60.56;97268.94;1787625;80;25807;-86
2021/06/19 07:52:55;;;;;;;13.85;8.63;;;;;;;23.89;60.15;97273.17;1787321;80;25768;-88
2021/06/19 07:55:22;;;;;;;9.33;7.50;;;;;;;24.02;60.00;97276.54;1787053;80;25760;-82
2021/06/19 07:57:48;;;;;;;11.55;6.97;;;;;;;23.93;59.80;97227.88;1787256;80;27164;-93
2021/06/19 08:00:15;;;;;;;7.58;6.60;;;;;;;24.34;59.47;97261.12;1787482;80;25686;-82
2021/06/19 08:02:43;;;;;;;7.95;6.50;;;;;;;24.61;59.38;97263.11;1787425;80;25798;-91
2021/06/19 08:05:12;;;;;;;6.58;5.87;;;;;;;24.97;58.83;97254.42;1787493;80;25736;-89
2021/06/19 08:07:40;;;;;;;6.55;6.05;;;;;;;25.42;58.47;97256.75;1787421;80;25708;-88
2021/06/19 08:10:08;;;;;;;6.28;5.70;;;;;;;25.92;58.00;97249.81;1780988;79;27426;-93
2021/06/19 08:12:35;;;;;;;7.17;5.78;;;;;;;26.45;57.27;97253.17;1748598;81;25705;-93
2021/06/19 08:15:05;;;;;;;6.87;5.30;;;;;;;26.90;56.75;97249.17;1754507;81;25837;-94
2021/06/19 08:17:31;;;;;;;8.18;5.10;;;;;;;27.33;55.84;97254.03;1734053;81;25548;-94
2021/06/19 08:19:58;;;;;;;6.10;5.50;;;;;;;27.74;54.90;97256.41;1734638;81;25717;-93
2021/06/19 08:22:24;;;;;;;6.53;4.72;;;;;;;28.15;53.99;97256.44;1774942;80;27149;-92
2021/06/19 08:24:51;;;;;;;6.40;4.12;;;;;;;28.44;52.94;97243.28;1785613;79;26080;-89
2021/06/19 08:27:22;;;;;;;4.20;3.62;;;;;;;28.71;53.24;97235.94;1787291;79;25803;-90
2021/06/19 08:29:46;;;;;;;5.22;3.62;;;;;;;29.09;52.40;97237.34;1786724;79;26130;-88
2021/06/19 08:32:14;;;;;;;7.65;3.95;;;;;;;29.43;51.61;97239.12;1787351;80;25656;-87
2021/06/19 08:34:42;;;;;;;3.85;3.33;;;;;;;29.80;51.11;97235.16;1787248;80;28297;-89
2021/06/19 08:37:08;;;;;;;5.67;3.60;;;;;;;30.05;49.59;97236.36;1787196;80;26403;-86
2021/06/19 08:39:35;;;;;;;3.83;3.40;;;;;;;30.31;49.67;97232.52;1787269;80;25778;-87
2021/06/19 08:42:03;;;;;;;11.78;3.87;;;;;;;30.65;49.02;97232.73;1787272;80;25760;-87
2021/06/19 08:44:30;;;;;;;7.70;3.25;;;;;;;30.90;48.70;97233.58;1787322;80;25778;-92
2021/06/19 08:46:58;;;;;;;4.37;2.50;;;;;;;31.24;48.49;97240.11;1787042;80;27556;-90
2021/06/19 08:49:28;;;;;;;4.70;2.47;;;;;;;31.47;46.67;97225.08;1787276;79;25762;-89
2021/06/19 08:51:58;;;;;;;4.15;2.70;;;;;;;31.62;46.37;97230.52;1787287;80;25747;-91
2021/06/19 08:54:25;;;;;;;6.33;3.10;;;;;;;31.72;46.15;97228.08;1787360;79;25846;-91
2021/06/19 08:56:52;;;;;;;5.37;2.80;;;;;;;32.07;46.06;97227.49;1787485;80;25794;-87
2021/06/19 08:59:18;;;;;;;6.62;3.10;;;;;;;32.33;44.86;97227.87;1787160;79;28580;-90
2021/06/19 09:01:45;;;;;;;4.10;3.08;;;;;;;32.48;44.29;97224.27;1787247;80;25756;-90
2021/06/19 09:04:12;;;;;;;6.00;2.67;;;;;;;32.80;44.25;97217.36;1782322;79;25851;-93
2021/06/19 09:06:42;;;;;;;4.30;2.72;;;;;;;33.07;43.20;97210.86;1751871;80;25712;-90
2021/06/19 09:09:15;;;;;;;3.87;2.22;;;;;;;33.23;42.63;97214.45;1754180;80;25766;-89
2021/06/19 09:11:54;;;;;;;2.58;2.20;;;;;;;33.44;42.13;97209.97;1786814;80;27575;-92
2021/06/19 09:14:28;;;;;;;7.55;3.08;;;;;;;33.67;41.50;97204.47;1755798;81;25380;-89
2021/06/19 09:17:06;;;;;;;4.17;2.72;;;;;;;33.84;41.28;97204.06;1754381;81;25732;-89
2021/06/19 09:19:42;;;;;;;4.03;2.40;;;;;;;34.14;40.60;97200.67;1752494;81;25729;-89
2021/06/19 09:22:19;;;;;;;6.78;2.65;;;;;;;34.37;40.25;97195.95;1771441;80;26507;-87
2021/06/19 09:24:52;;;;;;;5.25;3.27;;;;;;;34.59;39.50;97202.16;1787274;80;27614;-94
2021/06/19 09:27:38;;;;;;;4.62;2.80;;;;;;;34.66;39.13;97205.08;1787071;80;25717;-90
2021/06/19 09:30:14;;;;;;;4.87;2.60;;;;;;;34.82;38.64;97211.19;1787211;80;25849;-94
2021/06/19 09:32:58;;;;;;;3.42;2.92;;;;;;;35.00;37.78;97206.12;1787434;80;25748;-85
2021/06/19 09:35:34;;;;;;;3.25;2.95;;;;;;;35.04;37.32;97206.16;1749615;80;25746;-93
2021/06/19 09:38:11;;;;;;;3.17;2.65;;;;;;;35.03;36.92;97207.34;1758563;81;27342;-92
2021/06/19 09:40:44;;;;;;;4.00;2.72;;;;;;;35.07;36.22;97211.02;1750243;80;25856;-92
2021/06/19 09:43:20;;;;;;;6.15;2.37;;;;;;;35.12;35.98;97212.11;1765458;80;25836;-92
2021/06/19 09:46:09;;;;;;;3.42;2.40;;;;;;;35.14;35.31;97204.73;1752799;81;26324;-90
2021/06/19 09:48:39;;;;;;;6.30;2.72;;;;;;;35.03;35.52;97211.55;1775520;78;26256;-89
2021/06/19 09:51:22;;;;;;;5.12;3.10;;;;;;;35.13;35.50;97204.51;1747992;80;27380;-89
2021/06/19 09:53:52;;;;;;;5.67;2.98;;;;;;;35.13;35.27;97207.31;1737623;81;25776;-91
2021/06/19 09:56:22;;;;;;;5.70;2.37;;;;;;;35.13;35.06;97205.91;1730322;81;26322;-93
2021/06/19 09:58:57;;;;;;;3.27;2.35;;;;;;;35.10;34.85;97206.66;1750672;81;26346;-91
2021/06/19 10:01:42;;;;;;;2.70;2.47;;;;;;;35.06;34.51;97199.58;1766412;80;25853;-93
2021/06/19 10:04:09;;;;;;;3.22;2.52;;;;;;;35.05;33.80;97192.34;1787040;80;27361;-91
2021/06/19 10:06:37;;;;;;;3.80;2.20;;;;;;;34.93;33.91;97200.96;1787107;80;25752;-85
2021/06/19 10:09:06;;;;;;;5.20;2.47;;;;;;;34.87;33.92;97199.67;1787259;80;25762;-87
2021/06/19 10:11:32;;;;;;;3.80;2.75;;;;;;;34.83;33.92;97204.41;1786885;80;25892;-84
2021/06/19 10:14:01;;;;;;;5.75;2.60;;;;;;;34.77;33.68;97193.30;1733122;81;25208;-92
2021/06/19 10:16:29;;;;;;;5.00;2.33;;;;;;;34.67;33.87;97202.50;1760702;80;27476;-88
2021/06/19 10:18:57;;;;;;;4.00;2.65;;;;;;;34.66;33.55;97198.66;1760423;80;26085;-87
2021/06/19 10:21:26;;;;;;;3.22;2.65;;;;;;;34.65;33.30;97187.26;1754520;80;25296;-87
2021/06/19 10:23:53;;;;;;;4.65;2.60;;;;;;;34.63;33.50;97191.83;1756495;81;25690;-93
2021/06/19 10:26:24;;;;;;;5.22;2.40;;;;;;;34.52;33.12;97185.82;1761469;79;25310;-91
2021/06/19 10:28:55;;;;;;;5.62;3.00;;;;;;;34.37;32.59;97180.55;1746581;81;27324;-87
2021/06/19 10:31:22;;;;;;;3.95;2.95;;;;;;;34.32;33.10;97186.44;1735796;81;25864;-96
2021/06/19 10:33:49;;;;;;;7.60;2.70;;;;;;;34.31;33.24;97184.81;1768903;80;25680;-91
2021/06/19 10:36:16;;;;;;;3.83;3.00;;;;;;;34.38;33.19;97193.95;1782484;80;25804;-85
2021/06/19 10:38:51;;;;;;;3.58;2.80;;;;;;;34.37;32.87;97190.34;1755252;81;25645;-91
2021/06/19 10:41:22;;;;;;;5.65;3.05;;;;;;;34.35;33.32;97185.70;1747548;81;28031;-90
2021/06/19 10:43:51;;;;;;;8.90;3.47;;;;;;;34.37;33.40;97184.74;1748523;81;25695;-92
2021/06/19 10:46:32;;;;;;;5.25;3.10;;;;;;;34.38;33.49;97182.75;1761242;80;25280;-88
2021/06/19 10:49:02;;;;;;;3.95;3.30;;;;;;;34.36;33.30;97183.13;1767015;80;25707;-92
2021/06/19 10:51:32;;;;;;;5.72;2.72;;;;;;;34.31;33.03;97183.41;1729157;81;25248;-91
2021/06/19 10:54:22;;;;;;;3.20;2.83;;;;;;;34.26;33.38;97186.53;1781383;80;28335;-93
2021/06/19 10:56:56;;;;;;;3.58;2.80;;;;;;;34.30;33.29;97182.60;1788260;80;25673;-95
2021/06/19 10:59:26;;;;;;;4.50;3.22;;;;;;;34.17;32.75;97171.93;1777729;80;25244;-93
2021/06/19 11:01:56;;;;;;;3.27;3.00;;;;;;;34.12;32.60;97169.42;1779204;80;25700;-89
2021/06/19 11:04:41;;;;;;;2.87;2.60;;;;;;;34.17;32.79;97164.93;1782013;79;25692;-91
2021/06/19 11:07:22;;;;;;;7.58;2.98;;;;;;;34.27;32.78;97164.34;1748784;80;27355;-89
2021/06/19 11:09:49;;;;;;;5.05;2.85;;;;;;;34.30;33.18;97159.38;1770409;80;25746;-91
2021/06/19 11:12:28;;;;;;;3.33;2.58;;;;;;;34.29;32.77;97165.60;1765077;81;25672;-91
2021/06/19 11:15:05;;;;;;;3.47;3.08;;;;;;;34.33;32.54;97164.25;1751068;81;25663;-91
2021/06/19 11:17:37;;;;;;;6.03;2.60;;;;;;;34.37;33.01;97156.73;1749213;81;25795;-93
2021/06/19 11:20:09;;;;;;;4.97;2.70;;;;;;;34.44;32.80;97159.64;1760677;81;28196;-88
2021/06/19 11:22:41;;;;;;;6.70;3.30;;;;;;;34.50;32.13;97155.36;1762128;81;25812;-90
2021/06/19 11:25:38;;;;;;;3.80;2.52;;;;;;;34.57;32.74;97147.06;1742333;81;25744;-92
2021/06/19 11:28:11;;;;;;;4.03;2.58;;;;;;;34.62;32.25;97148.17;1739499;81;26266;-86
2021/06/19 11:30:43;;;;;;;4.00;2.55;;;;;;;34.52;32.04;97150.20;1755328;81;26361;-86
2021/06/19 11:33:25;;;;;;;6.20;2.92;;;;;;;34.52;31.97;97145.19;1760108;81;27373;-86
2021/06/19 11:36:06;;;;;;;7.92;3.22;;;;;;;34.41;31.71;97145.00;1762941;81;26418;-85